sensor_id;sensor_type;location;lat;lon;timestamp;P1;durP1;ratioP1;P2;durP2;ratioP2
18172;SDS011;9211;48.818;9.312;2022-10-03T00:00:33;15.48;;;8.90;;
18172;SDS011;9211;48.818;9.312;2022-10-03T00:03:16;12.75;;;9.25;;
18172;SDS011;9211;48.818;9.312;2022-10-03T00:06:05;15.20;;;10.48;;
18172;SDS011;9211;48.818;9.312;2022-10-03T00:08:42;15.23;;;10.37;;
18172;SDS011;9211;48.818;9.312;2022-10-03T00:11:23;17.27;;;11.30;;
18172;SDS011;9211;48.818;9.312;2022-10-03T00:13:59;14.00;;;10.10;;
18172;SDS011;9211;48.818;9.312;2022-10-03T00:16:34;17.80;;;10.80;;
18172;SDS011;9211;48.818;9.312;2022-10-03T00:19:12;14.57;;;9.70;;
18172;SDS011;9211;48.818;9.312;2022-10-03T00:21:51;13.65;;;9.30;;
18172;SDS011;9211;48.818;9.312;2022-10-03T00:24:31;14.68;;;9.88;;
18172;SDS011;9211;48.818;9.312;2022-10-03T00:27:07;16.75;;;9.60;;
18172;SDS011;9211;48.818;9.312;2022-10-03T00:29:46;14.38;;;9.43;;
18172;SDS011;9211;48.818;9.312;2022-10-03T00:32:36;13.07;;;9.15;;
18172;SDS011;9211;48.818;9.312;2022-10-03T00:35:17;15.07;;;10.27;;
18172;SDS011;9211;48.818;9.312;2022-10-03T00:38:02;14.30;;;9.63;;
18172;SDS011;9211;48.818;9.312;2022-10-03T00:43:50;16.23;;;9.73;;
18172;SDS011;9211;48.818;9.312;2022-10-03T00:49:56;16.85;;;10.23;;
18172;SDS011;9211;48.818;9.312;2022-10-03T00:52:37;15.88;;;9.50;;
18172;SDS011;9211;48.818;9.312;2022-10-03T00:55:27;18.00;;;9.93;;
18172;SDS011;9211;48.818;9.312;2022-10-03T00:58:12;14.70;;;9.40;;
18172;SDS011;9211;48.818;9.312;2022-10-03T01:00:54;15.10;;;9.73;;
18172;SDS011;9211;48.818;9.312;2022-10-03T01:03:35;16.48;;;9.80;;
18172;SDS011;9211;48.818;9.312;2022-10-03T01:06:12;14.18;;;9.38;;
18172;SDS011;9211;48.818;9.312;2022-10-03T01:08:59;15.45;;;9.32;;
18172;SDS011;9211;48.818;9.312;2022-10-03T01:14:49;15.90;;;9.73;;
18172;SDS011;9211;48.818;9.312;2022-10-03T01:17:29;15.45;;;10.15;;
18172;SDS011;9211;48.818;9.312;2022-10-03T01:20:17;16.85;;;9.48;;
18172;SDS011;9211;48.818;9.312;2022-10-03T01:26:13;16.75;;;9.82;;
18172;SDS011;9211;48.818;9.312;2022-10-03T01:28:52;16.73;;;9.85;;
18172;SDS011;9211;48.818;9.312;2022-10-03T01:31:42;14.23;;;9.02;;
18172;SDS011;9211;48.818;9.312;2022-10-03T01:34:16;16.42;;;9.75;;
18172;SDS011;9211;48.818;9.312;2022-10-03T01:36:51;16.52;;;10.02;;
18172;SDS011;9211;48.818;9.312;2022-10-03T01:39:27;15.60;;;9.73;;
18172;SDS011;9211;48.818;9.312;2022-10-03T01:42:00;16.42;;;9.70;;
18172;SDS011;9211;48.818;9.312;2022-10-03T01:44:37;14.23;;;9.35;;
18172;SDS011;9211;48.818;9.312;2022-10-03T01:47:14;13.77;;;9.03;;
18172;SDS011;9211;48.818;9.312;2022-10-03T01:49:50;15.33;;;10.00;;
18172;SDS011;9211;48.818;9.312;2022-10-03T01:52:23;17.13;;;10.20;;
18172;SDS011;9211;48.818;9.312;2022-10-03T01:55:00;16.73;;;10.67;;
18172;SDS011;9211;48.818;9.312;2022-10-03T01:57:34;16.03;;;10.97;;
18172;SDS011;9211;48.818;9.312;2022-10-03T02:02:59;15.90;;;9.93;;
18172;SDS011;9211;48.818;9.312;2022-10-03T02:05:35;15.70;;;10.35;;
18172;SDS011;9211;48.818;9.312;2022-10-03T02:08:06;16.50;;;10.50;;
18172;SDS011;9211;48.818;9.312;2022-10-03T02:10:43;16.45;;;10.50;;
18172;SDS011;9211;48.818;9.312;2022-10-03T02:13:17;18.88;;;11.10;;
18172;SDS011;9211;48.818;9.312;2022-10-03T02:15:54;17.85;;;10.38;;
18172;SDS011;9211;48.818;9.312;2022-10-03T02:18:33;18.75;;;11.13;;
18172;SDS011;9211;48.818;9.312;2022-10-03T02:21:10;19.58;;;11.50;;
18172;SDS011;9211;48.818;9.312;2022-10-03T02:23:42;18.07;;;11.80;;
18172;SDS011;9211;48.818;9.312;2022-10-03T02:26:19;19.70;;;11.60;;
18172;SDS011;9211;48.818;9.312;2022-10-03T02:29:15;17.70;;;11.15;;
18172;SDS011;9211;48.818;9.312;2022-10-03T02:32:02;19.87;;;11.50;;
18172;SDS011;9211;48.818;9.312;2022-10-03T02:35:01;20.00;;;11.77;;
18172;SDS011;9211;48.818;9.312;2022-10-03T02:37:36;16.25;;;10.50;;
18172;SDS011;9211;48.818;9.312;2022-10-03T02:40:38;17.90;;;10.98;;
18172;SDS011;9211;48.818;9.312;2022-10-03T02:52:59;18.75;;;10.98;;
18172;SDS011;9211;48.818;9.312;2022-10-03T02:55:59;18.75;;;11.00;;
18172;SDS011;9211;48.818;9.312;2022-10-03T03:01:53;17.27;;;11.05;;
18172;SDS011;9211;48.818;9.312;2022-10-03T03:08:04;19.02;;;11.52;;
18172;SDS011;9211;48.818;9.312;2022-10-03T03:11:05;17.67;;;10.77;;
18172;SDS011;9211;48.818;9.312;2022-10-03T03:14:03;22.67;;;12.05;;
18172;SDS011;9211;48.818;9.312;2022-10-03T03:16:54;15.98;;;10.70;;
18172;SDS011;9211;48.818;9.312;2022-10-03T03:22:31;18.25;;;10.68;;
18172;SDS011;9211;48.818;9.312;2022-10-03T03:25:11;19.08;;;10.82;;
18172;SDS011;9211;48.818;9.312;2022-10-03T03:27:58;17.00;;;10.50;;
18172;SDS011;9211;48.818;9.312;2022-10-03T03:30:37;16.13;;;10.30;;
18172;SDS011;9211;48.818;9.312;2022-10-03T03:33:12;16.40;;;10.48;;
18172;SDS011;9211;48.818;9.312;2022-10-03T03:35:51;17.13;;;10.05;;
18172;SDS011;9211;48.818;9.312;2022-10-03T03:38:27;17.70;;;10.67;;
18172;SDS011;9211;48.818;9.312;2022-10-03T03:44:09;15.73;;;10.63;;
18172;SDS011;9211;48.818;9.312;2022-10-03T03:47:02;16.63;;;10.30;;
18172;SDS011;9211;48.818;9.312;2022-10-03T03:49:45;16.85;;;10.25;;
18172;SDS011;9211;48.818;9.312;2022-10-03T03:52:36;16.57;;;10.23;;
18172;SDS011;9211;48.818;9.312;2022-10-03T03:55:20;17.88;;;10.43;;
18172;SDS011;9211;48.818;9.312;2022-10-03T03:58:12;17.55;;;11.05;;
18172;SDS011;9211;48.818;9.312;2022-10-03T04:01:00;15.40;;;10.40;;
18172;SDS011;9211;48.818;9.312;2022-10-03T04:03:40;20.15;;;10.80;;
18172;SDS011;9211;48.818;9.312;2022-10-03T04:06:19;17.30;;;11.27;;
18172;SDS011;9211;48.818;9.312;2022-10-03T04:09:02;19.30;;;11.07;;
18172;SDS011;9211;48.818;9.312;2022-10-03T04:11:49;16.65;;;10.38;;
18172;SDS011;9211;48.818;9.312;2022-10-03T04:14:28;16.40;;;10.35;;
18172;SDS011;9211;48.818;9.312;2022-10-03T04:17:18;16.05;;;10.43;;
18172;SDS011;9211;48.818;9.312;2022-10-03T04:20:17;18.42;;;10.98;;
18172;SDS011;9211;48.818;9.312;2022-10-03T04:23:12;17.77;;;10.55;;
18172;SDS011;9211;48.818;9.312;2022-10-03T04:25:51;17.17;;;10.18;;
18172;SDS011;9211;48.818;9.312;2022-10-03T04:28:34;14.90;;;9.63;;
18172;SDS011;9211;48.818;9.312;2022-10-03T04:31:27;17.37;;;10.27;;
18172;SDS011;9211;48.818;9.312;2022-10-03T04:34:09;16.92;;;10.20;;
18172;SDS011;9211;48.818;9.312;2022-10-03T04:39:51;16.42;;;10.02;;
18172;SDS011;9211;48.818;9.312;2022-10-03T04:42:32;20.92;;;10.93;;
18172;SDS011;9211;48.818;9.312;2022-10-03T04:45:11;18.80;;;10.77;;
18172;SDS011;9211;48.818;9.312;2022-10-03T04:47:55;16.70;;;10.73;;
18172;SDS011;9211;48.818;9.312;2022-10-03T04:50:33;15.15;;;10.20;;
18172;SDS011;9211;48.818;9.312;2022-10-03T04:53:09;15.93;;;10.32;;
18172;SDS011;9211;48.818;9.312;2022-10-03T04:55:45;16.95;;;10.52;;
18172;SDS011;9211;48.818;9.312;2022-10-03T04:58:16;16.98;;;9.63;;
18172;SDS011;9211;48.818;9.312;2022-10-03T05:00:58;16.52;;;10.10;;
18172;SDS011;9211;48.818;9.312;2022-10-03T05:03:39;16.65;;;9.93;;
18172;SDS011;9211;48.818;9.312;2022-10-03T05:06:19;16.38;;;10.43;;
18172;SDS011;9211;48.818;9.312;2022-10-03T05:09:01;18.23;;;10.15;;
18172;SDS011;9211;48.818;9.312;2022-10-03T05:11:44;22.02;;;11.25;;
18172;SDS011;9211;48.818;9.312;2022-10-03T05:14:22;20.23;;;11.25;;
18172;SDS011;9211;48.818;9.312;2022-10-03T05:16:54;17.02;;;10.13;;
18172;SDS011;9211;48.818;9.312;2022-10-03T05:19:45;17.52;;;10.50;;
18172;SDS011;9211;48.818;9.312;2022-10-03T05:22:31;17.27;;;10.45;;
18172;SDS011;9211;48.818;9.312;2022-10-03T05:25:21;19.40;;;10.63;;
18172;SDS011;9211;48.818;9.312;2022-10-03T05:27:57;18.73;;;11.00;;
18172;SDS011;9211;48.818;9.312;2022-10-03T05:30:41;17.15;;;10.38;;
18172;SDS011;9211;48.818;9.312;2022-10-03T05:33:13;19.27;;;10.65;;
18172;SDS011;9211;48.818;9.312;2022-10-03T05:35:49;20.27;;;10.70;;
18172;SDS011;9211;48.818;9.312;2022-10-03T05:41:27;22.15;;;11.52;;
18172;SDS011;9211;48.818;9.312;2022-10-03T05:44:00;18.48;;;11.10;;
18172;SDS011;9211;48.818;9.312;2022-10-03T05:46:36;17.98;;;11.00;;
18172;SDS011;9211;48.818;9.312;2022-10-03T05:49:13;20.73;;;11.32;;
18172;SDS011;9211;48.818;9.312;2022-10-03T05:52:22;22.97;;;12.13;;
18172;SDS011;9211;48.818;9.312;2022-10-03T05:55:11;19.40;;;11.00;;
18172;SDS011;9211;48.818;9.312;2022-10-03T06:03:55;23.40;;;12.90;;
18172;SDS011;9211;48.818;9.312;2022-10-03T06:06:41;22.25;;;12.40;;
18172;SDS011;9211;48.818;9.312;2022-10-03T06:12:08;22.52;;;13.55;;
18172;SDS011;9211;48.818;9.312;2022-10-03T06:14:46;22.58;;;12.45;;
18172;SDS011;9211;48.818;9.312;2022-10-03T06:23:36;21.48;;;13.00;;
18172;SDS011;9211;48.818;9.312;2022-10-03T06:26:28;22.77;;;12.35;;
18172;SDS011;9211;48.818;9.312;2022-10-03T06:29:27;22.83;;;12.65;;
18172;SDS011;9211;48.818;9.312;2022-10-03T06:32:24;22.77;;;12.48;;
18172;SDS011;9211;48.818;9.312;2022-10-03T06:35:36;21.63;;;11.65;;
18172;SDS011;9211;48.818;9.312;2022-10-03T06:42:00;20.88;;;12.05;;
18172;SDS011;9211;48.818;9.312;2022-10-03T06:48:28;19.77;;;11.75;;
18172;SDS011;9211;48.818;9.312;2022-10-03T06:54:45;20.87;;;12.10;;
18172;SDS011;9211;48.818;9.312;2022-10-03T06:57:49;19.15;;;10.88;;
18172;SDS011;9211;48.818;9.312;2022-10-03T07:00:42;21.35;;;11.73;;
18172;SDS011;9211;48.818;9.312;2022-10-03T07:03:25;22.00;;;11.60;;
18172;SDS011;9211;48.818;9.312;2022-10-03T07:12:15;21.10;;;12.07;;
18172;SDS011;9211;48.818;9.312;2022-10-03T07:15:07;22.60;;;11.45;;
18172;SDS011;9211;48.818;9.312;2022-10-03T07:18:02;20.90;;;11.48;;
18172;SDS011;9211;48.818;9.312;2022-10-03T07:20:57;18.42;;;10.90;;
18172;SDS011;9211;48.818;9.312;2022-10-03T07:24:00;19.30;;;11.27;;
18172;SDS011;9211;48.818;9.312;2022-10-03T07:29:57;21.33;;;11.00;;
18172;SDS011;9211;48.818;9.312;2022-10-03T07:32:37;19.30;;;11.07;;
18172;SDS011;9211;48.818;9.312;2022-10-03T07:35:39;19.80;;;11.60;;
18172;SDS011;9211;48.818;9.312;2022-10-03T07:41:41;23.73;;;11.85;;
18172;SDS011;9211;48.818;9.312;2022-10-03T07:47:32;23.27;;;11.70;;
18172;SDS011;9211;48.818;9.312;2022-10-03T07:50:37;20.73;;;11.27;;
18172;SDS011;9211;48.818;9.312;2022-10-03T07:53:22;20.00;;;10.75;;
18172;SDS011;9211;48.818;9.312;2022-10-03T07:56:11;18.83;;;10.32;;
18172;SDS011;9211;48.818;9.312;2022-10-03T08:01:58;21.67;;;10.63;;
18172;SDS011;9211;48.818;9.312;2022-10-03T08:04:49;22.05;;;11.88;;
18172;SDS011;9211;48.818;9.312;2022-10-03T08:07:38;22.08;;;11.20;;
18172;SDS011;9211;48.818;9.312;2022-10-03T08:10:46;22.98;;;11.60;;
18172;SDS011;9211;48.818;9.312;2022-10-03T08:13:31;20.77;;;10.45;;
18172;SDS011;9211;48.818;9.312;2022-10-03T08:16:17;20.67;;;10.82;;
18172;SDS011;9211;48.818;9.312;2022-10-03T08:19:00;21.17;;;11.00;;
18172;SDS011;9211;48.818;9.312;2022-10-03T08:21:47;20.63;;;11.27;;
18172;SDS011;9211;48.818;9.312;2022-10-03T08:24:35;23.95;;;12.02;;
18172;SDS011;9211;48.818;9.312;2022-10-03T08:30:20;20.70;;;10.43;;
18172;SDS011;9211;48.818;9.312;2022-10-03T08:33:10;18.45;;;10.75;;
18172;SDS011;9211;48.818;9.312;2022-10-03T08:36:16;24.50;;;11.15;;
18172;SDS011;9211;48.818;9.312;2022-10-03T08:39:10;21.65;;;11.15;;
18172;SDS011;9211;48.818;9.312;2022-10-03T08:41:57;19.92;;;10.85;;
18172;SDS011;9211;48.818;9.312;2022-10-03T08:50:54;20.48;;;9.32;;
18172;SDS011;9211;48.818;9.312;2022-10-03T08:54:05;17.88;;;8.32;;
18172;SDS011;9211;48.818;9.312;2022-10-03T08:57:12;16.80;;;8.18;;
18172;SDS011;9211;48.818;9.312;2022-10-03T09:00:01;15.85;;;7.95;;
18172;SDS011;9211;48.818;9.312;2022-10-03T09:09:03;12.37;;;7.13;;
18172;SDS011;9211;48.818;9.312;2022-10-03T09:11:43;17.35;;;7.60;;
18172;SDS011;9211;48.818;9.312;2022-10-03T09:14:30;12.90;;;7.05;;
18172;SDS011;9211;48.818;9.312;2022-10-03T09:17:24;17.00;;;8.07;;
18172;SDS011;9211;48.818;9.312;2022-10-03T09:20:26;14.60;;;7.25;;
18172;SDS011;9211;48.818;9.312;2022-10-03T09:23:19;16.20;;;7.40;;
18172;SDS011;9211;48.818;9.312;2022-10-03T09:26:24;15.55;;;7.60;;
18172;SDS011;9211;48.818;9.312;2022-10-03T09:29:28;14.90;;;6.88;;
18172;SDS011;9211;48.818;9.312;2022-10-03T09:32:22;13.68;;;7.18;;
18172;SDS011;9211;48.818;9.312;2022-10-03T09:35:22;16.15;;;7.22;;
18172;SDS011;9211;48.818;9.312;2022-10-03T09:41:17;15.13;;;6.72;;
18172;SDS011;9211;48.818;9.312;2022-10-03T09:46:58;15.32;;;6.53;;
18172;SDS011;9211;48.818;9.312;2022-10-03T09:56:35;12.68;;;5.80;;
18172;SDS011;9211;48.818;9.312;2022-10-03T09:59:49;13.70;;;5.45;;
18172;SDS011;9211;48.818;9.312;2022-10-03T10:02:37;11.90;;;5.18;;
18172;SDS011;9211;48.818;9.312;2022-10-03T10:08:41;14.00;;;5.40;;
18172;SDS011;9211;48.818;9.312;2022-10-03T10:11:30;13.15;;;5.10;;
18172;SDS011;9211;48.818;9.312;2022-10-03T10:14:13;13.40;;;4.75;;
18172;SDS011;9211;48.818;9.312;2022-10-03T10:20:24;15.83;;;5.10;;
18172;SDS011;9211;48.818;9.312;2022-10-03T10:23:07;11.00;;;4.43;;
18172;SDS011;9211;48.818;9.312;2022-10-03T10:29:07;11.90;;;4.93;;
18172;SDS011;9211;48.818;9.312;2022-10-03T10:41:15;12.00;;;5.22;;
18172;SDS011;9211;48.818;9.312;2022-10-03T10:44:31;12.65;;;4.53;;
18172;SDS011;9211;48.818;9.312;2022-10-03T10:57:07;14.00;;;4.88;;
18172;SDS011;9211;48.818;9.312;2022-10-03T11:00:09;14.57;;;4.97;;
18172;SDS011;9211;48.818;9.312;2022-10-03T11:15:32;13.57;;;5.10;;
18172;SDS011;9211;48.818;9.312;2022-10-03T11:18:32;11.93;;;4.68;;
18172;SDS011;9211;48.818;9.312;2022-10-03T11:27:43;12.18;;;4.80;;
18172;SDS011;9211;48.818;9.312;2022-10-03T11:37:05;11.95;;;3.83;;
18172;SDS011;9211;48.818;9.312;2022-10-03T11:39:46;13.00;;;3.85;;
18172;SDS011;9211;48.818;9.312;2022-10-03T11:42:27;8.90;;;3.42;;
18172;SDS011;9211;48.818;9.312;2022-10-03T11:45:14;10.82;;;4.10;;
18172;SDS011;9211;48.818;9.312;2022-10-03T11:47:50;8.97;;;3.67;;
18172;SDS011;9211;48.818;9.312;2022-10-03T11:56:13;9.63;;;3.45;;
18172;SDS011;9211;48.818;9.312;2022-10-03T11:59:02;8.70;;;3.10;;
18172;SDS011;9211;48.818;9.312;2022-10-03T12:01:53;8.57;;;3.00;;
18172;SDS011;9211;48.818;9.312;2022-10-03T12:04:33;8.82;;;2.88;;
18172;SDS011;9211;48.818;9.312;2022-10-03T12:07:13;6.78;;;2.80;;
18172;SDS011;9211;48.818;9.312;2022-10-03T12:10:09;9.05;;;2.97;;
18172;SDS011;9211;48.818;9.312;2022-10-03T12:12:43;10.30;;;2.80;;
18172;SDS011;9211;48.818;9.312;2022-10-03T12:15:18;9.90;;;2.83;;
18172;SDS011;9211;48.818;9.312;2022-10-03T12:17:56;8.15;;;2.40;;
18172;SDS011;9211;48.818;9.312;2022-10-03T12:20:31;4.50;;;2.00;;
18172;SDS011;9211;48.818;9.312;2022-10-03T12:23:13;8.07;;;2.40;;
18172;SDS011;9211;48.818;9.312;2022-10-03T12:25:51;8.05;;;2.30;;
18172;SDS011;9211;48.818;9.312;2022-10-03T12:28:21;6.22;;;2.30;;
18172;SDS011;9211;48.818;9.312;2022-10-03T12:30:52;6.28;;;2.25;;
18172;SDS011;9211;48.818;9.312;2022-10-03T12:33:23;5.70;;;2.38;;
18172;SDS011;9211;48.818;9.312;2022-10-03T12:36:04;5.78;;;2.20;;
18172;SDS011;9211;48.818;9.312;2022-10-03T12:38:42;4.40;;;1.98;;
18172;SDS011;9211;48.818;9.312;2022-10-03T12:41:46;6.77;;;2.30;;
18172;SDS011;9211;48.818;9.312;2022-10-03T12:44:26;5.97;;;2.10;;
18172;SDS011;9211;48.818;9.312;2022-10-03T12:47:08;6.15;;;2.38;;
18172;SDS011;9211;48.818;9.312;2022-10-03T12:49:49;5.53;;;2.40;;
18172;SDS011;9211;48.818;9.312;2022-10-03T12:52:23;6.07;;;2.40;;
18172;SDS011;9211;48.818;9.312;2022-10-03T12:54:58;8.23;;;2.70;;
18172;SDS011;9211;48.818;9.312;2022-10-03T12:57:44;5.38;;;2.40;;
18172;SDS011;9211;48.818;9.312;2022-10-03T13:00:26;10.50;;;2.50;;
18172;SDS011;9211;48.818;9.312;2022-10-03T13:03:05;8.73;;;2.40;;
18172;SDS011;9211;48.818;9.312;2022-10-03T13:08:59;5.82;;;2.15;;
18172;SDS011;9211;48.818;9.312;2022-10-03T13:11:49;5.40;;;1.95;;
18172;SDS011;9211;48.818;9.312;2022-10-03T13:14:27;6.32;;;2.13;;
18172;SDS011;9211;48.818;9.312;2022-10-03T13:17:07;3.92;;;1.70;;
18172;SDS011;9211;48.818;9.312;2022-10-03T13:19:46;5.72;;;2.20;;
18172;SDS011;9211;48.818;9.312;2022-10-03T13:22:24;5.63;;;2.17;;
18172;SDS011;9211;48.818;9.312;2022-10-03T13:24:59;4.80;;;1.58;;
18172;SDS011;9211;48.818;9.312;2022-10-03T13:27:35;6.75;;;1.80;;
18172;SDS011;9211;48.818;9.312;2022-10-03T13:30:12;7.07;;;1.92;;
18172;SDS011;9211;48.818;9.312;2022-10-03T13:32:44;5.35;;;2.00;;
18172;SDS011;9211;48.818;9.312;2022-10-03T13:35:21;4.55;;;1.80;;
18172;SDS011;9211;48.818;9.312;2022-10-03T13:38:16;7.53;;;1.70;;
18172;SDS011;9211;48.818;9.312;2022-10-03T13:41:07;6.05;;;1.77;;
18172;SDS011;9211;48.818;9.312;2022-10-03T13:43:41;8.00;;;2.08;;
18172;SDS011;9211;48.818;9.312;2022-10-03T13:46:16;5.43;;;1.70;;
18172;SDS011;9211;48.818;9.312;2022-10-03T13:48:51;6.30;;;1.77;;
18172;SDS011;9211;48.818;9.312;2022-10-03T13:51:26;6.75;;;2.10;;
18172;SDS011;9211;48.818;9.312;2022-10-03T13:54:00;3.80;;;1.60;;
18172;SDS011;9211;48.818;9.312;2022-10-03T13:56:41;5.13;;;1.98;;
18172;SDS011;9211;48.818;9.312;2022-10-03T13:59:18;5.53;;;2.13;;
18172;SDS011;9211;48.818;9.312;2022-10-03T14:01:59;7.68;;;1.95;;
18172;SDS011;9211;48.818;9.312;2022-10-03T14:04:51;5.07;;;1.80;;
18172;SDS011;9211;48.818;9.312;2022-10-03T14:07:32;5.60;;;1.90;;
18172;SDS011;9211;48.818;9.312;2022-10-03T14:10:08;7.10;;;2.30;;
18172;SDS011;9211;48.818;9.312;2022-10-03T14:12:52;6.85;;;2.10;;
18172;SDS011;9211;48.818;9.312;2022-10-03T14:15:36;7.50;;;1.98;;
18172;SDS011;9211;48.818;9.312;2022-10-03T14:18:26;5.72;;;2.00;;
18172;SDS011;9211;48.818;9.312;2022-10-03T14:21:23;6.38;;;2.00;;
18172;SDS011;9211;48.818;9.312;2022-10-03T14:24:12;5.80;;;1.90;;
18172;SDS011;9211;48.818;9.312;2022-10-03T14:26:46;5.50;;;1.90;;
18172;SDS011;9211;48.818;9.312;2022-10-03T14:29:21;6.80;;;1.83;;
18172;SDS011;9211;48.818;9.312;2022-10-03T14:31:56;6.15;;;2.05;;
18172;SDS011;9211;48.818;9.312;2022-10-03T14:34:33;6.57;;;1.85;;
18172;SDS011;9211;48.818;9.312;2022-10-03T14:37:10;8.30;;;2.25;;
18172;SDS011;9211;48.818;9.312;2022-10-03T14:39:47;6.32;;;2.03;;
18172;SDS011;9211;48.818;9.312;2022-10-03T14:42:38;6.50;;;2.00;;
18172;SDS011;9211;48.818;9.312;2022-10-03T14:45:16;5.18;;;2.15;;
18172;SDS011;9211;48.818;9.312;2022-10-03T14:47:48;3.80;;;1.90;;
18172;SDS011;9211;48.818;9.312;2022-10-03T14:50:19;4.07;;;2.00;;
18172;SDS011;9211;48.818;9.312;2022-10-03T14:52:51;4.27;;;2.03;;
18172;SDS011;9211;48.818;9.312;2022-10-03T14:55:27;5.47;;;2.17;;
18172;SDS011;9211;48.818;9.312;2022-10-03T14:57:58;6.60;;;2.10;;
18172;SDS011;9211;48.818;9.312;2022-10-03T15:00:36;5.95;;;1.95;;
18172;SDS011;9211;48.818;9.312;2022-10-03T15:03:26;6.55;;;2.30;;
18172;SDS011;9211;48.818;9.312;2022-10-03T15:05:58;5.25;;;1.88;;
18172;SDS011;9211;48.818;9.312;2022-10-03T15:08:33;3.90;;;1.90;;
18172;SDS011;9211;48.818;9.312;2022-10-03T15:11:03;6.32;;;2.28;;
18172;SDS011;9211;48.818;9.312;2022-10-03T15:13:32;7.57;;;2.25;;
18172;SDS011;9211;48.818;9.312;2022-10-03T15:16:07;7.82;;;2.63;;
18172;SDS011;9211;48.818;9.312;2022-10-03T15:18:39;5.30;;;2.25;;
18172;SDS011;9211;48.818;9.312;2022-10-03T15:21:15;4.43;;;1.88;;
18172;SDS011;9211;48.818;9.312;2022-10-03T15:23:43;4.43;;;2.05;;
18172;SDS011;9211;48.818;9.312;2022-10-03T15:26:13;5.50;;;2.30;;
18172;SDS011;9211;48.818;9.312;2022-10-03T15:28:44;5.07;;;2.00;;
18172;SDS011;9211;48.818;9.312;2022-10-03T15:31:21;5.28;;;2.10;;
18172;SDS011;9211;48.818;9.312;2022-10-03T15:33:57;6.47;;;2.10;;
18172;SDS011;9211;48.818;9.312;2022-10-03T15:36:28;5.32;;;1.98;;
18172;SDS011;9211;48.818;9.312;2022-10-03T15:39:01;4.68;;;2.05;;
18172;SDS011;9211;48.818;9.312;2022-10-03T15:41:32;4.40;;;1.80;;
18172;SDS011;9211;48.818;9.312;2022-10-03T15:44:02;5.30;;;2.08;;
18172;SDS011;9211;48.818;9.312;2022-10-03T15:46:33;5.77;;;2.10;;
18172;SDS011;9211;48.818;9.312;2022-10-03T15:49:08;7.35;;;2.30;;
18172;SDS011;9211;48.818;9.312;2022-10-03T15:51:43;6.00;;;2.20;;
18172;SDS011;9211;48.818;9.312;2022-10-03T15:54:15;7.13;;;2.33;;
18172;SDS011;9211;48.818;9.312;2022-10-03T15:56:48;5.10;;;2.10;;
18172;SDS011;9211;48.818;9.312;2022-10-03T15:59:20;5.75;;;2.30;;
18172;SDS011;9211;48.818;9.312;2022-10-03T16:01:51;5.80;;;2.20;;
18172;SDS011;9211;48.818;9.312;2022-10-03T16:04:20;7.95;;;2.22;;
18172;SDS011;9211;48.818;9.312;2022-10-03T16:06:52;6.57;;;2.17;;
18172;SDS011;9211;48.818;9.312;2022-10-03T16:09:28;6.22;;;2.08;;
18172;SDS011;9211;48.818;9.312;2022-10-03T16:12:05;6.40;;;2.10;;
18172;SDS011;9211;48.818;9.312;2022-10-03T16:14:55;6.93;;;2.40;;
18172;SDS011;9211;48.818;9.312;2022-10-03T16:17:44;5.72;;;2.20;;
18172;SDS011;9211;48.818;9.312;2022-10-03T16:20:16;6.88;;;2.28;;
18172;SDS011;9211;48.818;9.312;2022-10-03T16:22:48;7.22;;;2.30;;
18172;SDS011;9211;48.818;9.312;2022-10-03T16:25:18;7.20;;;2.30;;
18172;SDS011;9211;48.818;9.312;2022-10-03T16:27:50;8.10;;;2.60;;
18172;SDS011;9211;48.818;9.312;2022-10-03T16:30:20;6.32;;;2.47;;
18172;SDS011;9211;48.818;9.312;2022-10-03T16:32:51;7.70;;;2.63;;
18172;SDS011;9211;48.818;9.312;2022-10-03T16:35:32;9.23;;;2.63;;
18172;SDS011;9211;48.818;9.312;2022-10-03T16:38:02;7.03;;;2.97;;
18172;SDS011;9211;48.818;9.312;2022-10-03T16:40:33;10.57;;;3.97;;
18172;SDS011;9211;48.818;9.312;2022-10-03T16:43:03;11.68;;;4.60;;
18172;SDS011;9211;48.818;9.312;2022-10-03T16:45:38;10.88;;;4.38;;
18172;SDS011;9211;48.818;9.312;2022-10-03T16:48:13;13.05;;;4.43;;
18172;SDS011;9211;48.818;9.312;2022-10-03T16:51:03;10.80;;;3.90;;
18172;SDS011;9211;48.818;9.312;2022-10-03T16:53:39;9.67;;;4.10;;
18172;SDS011;9211;48.818;9.312;2022-10-03T16:56:09;10.73;;;4.55;;
18172;SDS011;9211;48.818;9.312;2022-10-03T16:58:42;11.57;;;4.00;;
18172;SDS011;9211;48.818;9.312;2022-10-03T17:01:20;9.20;;;3.70;;
18172;SDS011;9211;48.818;9.312;2022-10-03T17:03:54;10.95;;;3.90;;
18172;SDS011;9211;48.818;9.312;2022-10-03T17:06:26;6.47;;;3.53;;
18172;SDS011;9211;48.818;9.312;2022-10-03T17:08:56;8.33;;;3.70;;
18172;SDS011;9211;48.818;9.312;2022-10-03T17:11:27;8.73;;;3.38;;
18172;SDS011;9211;48.818;9.312;2022-10-03T17:14:00;7.93;;;3.25;;
18172;SDS011;9211;48.818;9.312;2022-10-03T17:16:34;8.63;;;3.63;;
18172;SDS011;9211;48.818;9.312;2022-10-03T17:19:17;8.05;;;3.40;;
18172;SDS011;9211;48.818;9.312;2022-10-03T17:21:52;9.05;;;3.33;;
18172;SDS011;9211;48.818;9.312;2022-10-03T17:24:34;11.90;;;3.60;;
18172;SDS011;9211;48.818;9.312;2022-10-03T17:27:08;9.57;;;3.30;;
18172;SDS011;9211;48.818;9.312;2022-10-03T17:29:41;11.38;;;3.60;;
18172;SDS011;9211;48.818;9.312;2022-10-03T17:32:16;9.65;;;3.70;;
18172;SDS011;9211;48.818;9.312;2022-10-03T17:34:49;8.30;;;3.83;;
18172;SDS011;9211;48.818;9.312;2022-10-03T17:37:40;9.00;;;3.70;;
18172;SDS011;9211;48.818;9.312;2022-10-03T17:40:18;10.27;;;4.17;;
18172;SDS011;9211;48.818;9.312;2022-10-03T17:42:48;9.32;;;4.10;;
18172;SDS011;9211;48.818;9.312;2022-10-03T17:45:24;13.43;;;4.90;;
18172;SDS011;9211;48.818;9.312;2022-10-03T17:47:57;12.35;;;4.72;;
18172;SDS011;9211;48.818;9.312;2022-10-03T17:50:35;12.57;;;4.80;;
18172;SDS011;9211;48.818;9.312;2022-10-03T17:53:12;11.80;;;4.32;;
18172;SDS011;9211;48.818;9.312;2022-10-03T17:55:45;8.48;;;4.30;;
18172;SDS011;9211;48.818;9.312;2022-10-03T17:58:16;12.00;;;4.30;;
18172;SDS011;9211;48.818;9.312;2022-10-03T18:00:57;11.57;;;4.65;;
18172;SDS011;9211;48.818;9.312;2022-10-03T18:03:31;11.93;;;5.40;;
18172;SDS011;9211;48.818;9.312;2022-10-03T18:09:05;13.15;;;5.80;;
18172;SDS011;9211;48.818;9.312;2022-10-03T18:11:36;13.93;;;6.43;;
18172;SDS011;9211;48.818;9.312;2022-10-03T18:14:08;13.60;;;5.97;;
18172;SDS011;9211;48.818;9.312;2022-10-03T18:16:42;11.47;;;6.10;;
18172;SDS011;9211;48.818;9.312;2022-10-03T18:19:19;16.17;;;5.63;;
18172;SDS011;9211;48.818;9.312;2022-10-03T18:22:02;11.40;;;6.03;;
18172;SDS011;9211;48.818;9.312;2022-10-03T18:27:30;12.88;;;6.28;;
18172;SDS011;9211;48.818;9.312;2022-10-03T18:30:12;11.80;;;6.07;;
18172;SDS011;9211;48.818;9.312;2022-10-03T18:32:42;11.52;;;5.60;;
18172;SDS011;9211;48.818;9.312;2022-10-03T18:35:12;15.60;;;5.57;;
18172;SDS011;9211;48.818;9.312;2022-10-03T18:40:39;13.25;;;6.03;;
18172;SDS011;9211;48.818;9.312;2022-10-03T18:43:28;10.98;;;5.35;;
18172;SDS011;9211;48.818;9.312;2022-10-03T18:45:59;12.35;;;5.68;;
18172;SDS011;9211;48.818;9.312;2022-10-03T18:48:34;13.57;;;5.25;;
18172;SDS011;9211;48.818;9.312;2022-10-03T18:51:11;11.75;;;5.18;;
18172;SDS011;9211;48.818;9.312;2022-10-03T18:53:44;12.13;;;4.73;;
18172;SDS011;9211;48.818;9.312;2022-10-03T18:56:18;10.73;;;4.93;;
18172;SDS011;9211;48.818;9.312;2022-10-03T18:58:56;9.70;;;4.75;;
18172;SDS011;9211;48.818;9.312;2022-10-03T19:01:44;12.40;;;4.82;;
18172;SDS011;9211;48.818;9.312;2022-10-03T19:04:18;15.30;;;5.15;;
18172;SDS011;9211;48.818;9.312;2022-10-03T19:07:01;9.02;;;5.10;;
18172;SDS011;9211;48.818;9.312;2022-10-03T19:09:43;11.85;;;5.30;;
18172;SDS011;9211;48.818;9.312;2022-10-03T19:12:28;12.93;;;6.05;;
18172;SDS011;9211;48.818;9.312;2022-10-03T19:15:05;15.98;;;5.82;;
18172;SDS011;9211;48.818;9.312;2022-10-03T19:17:45;11.27;;;5.10;;
18172;SDS011;9211;48.818;9.312;2022-10-03T19:20:20;10.45;;;5.45;;
18172;SDS011;9211;48.818;9.312;2022-10-03T19:22:56;12.25;;;5.80;;